createdAt,value
2019-01-23T00:00:32.023Z,-2.40
2019-01-23T00:03:00.471Z,-2.40
2019-01-23T00:05:29.179Z,-2.40
2019-01-23T00:07:57.602Z,-2.40
2019-01-23T00:10:27.323Z,-2.40
2019-01-23T00:12:56.066Z,-2.40
2019-01-23T00:15:24.554Z,-2.40
2019-01-23T00:17:53.080Z,-2.50
2019-01-23T00:20:21.494Z,-2.50
2019-01-23T00:22:57.567Z,-2.50
2019-01-23T00:25:26.090Z,-2.50
2019-01-23T00:27:54.554Z,-2.50
2019-01-23T00:30:22.977Z,-2.50
2019-01-23T00:32:51.413Z,-2.40
2019-01-23T00:35:19.834Z,-2.40
2019-01-23T00:37:51.422Z,-2.50
2019-01-23T00:40:19.976Z,-2.50
2019-01-23T00:42:48.422Z,-2.60
2019-01-23T00:45:16.847Z,-2.60
2019-01-23T00:47:45.290Z,-2.70
2019-01-23T00:50:15.270Z,-2.60
2019-01-23T00:52:43.723Z,-2.60
2019-01-23T00:55:18.798Z,-2.60
2019-01-23T00:57:47.226Z,-2.60
2019-01-23T01:00:26.566Z,-2.60
2019-01-23T01:02:55.603Z,-2.60
2019-01-23T01:05:24.283Z,-2.60
2019-01-23T01:07:52.762Z,-2.70
2019-01-23T01:10:21.918Z,-2.70
2019-01-23T01:12:50.410Z,-2.60
2019-01-23T01:15:19.419Z,-2.60
2019-01-23T01:17:47.914Z,-2.50
2019-01-23T01:20:16.949Z,-2.60
2019-01-23T01:22:45.946Z,-2.60
2019-01-23T01:25:20.416Z,-2.70
2019-01-23T01:27:48.854Z,-2.70
2019-01-23T01:30:22.830Z,-2.70
2019-01-23T01:32:51.519Z,-2.60
2019-01-23T01:35:20.236Z,-2.60
2019-01-23T01:37:48.947Z,-2.50
2019-01-23T01:40:19.203Z,-2.50
2019-01-23T01:42:47.724Z,-2.50
2019-01-23T01:45:17.772Z,-2.50
2019-01-23T01:47:46.653Z,-2.60
2019-01-23T01:50:18.152Z,-2.50
2019-01-23T01:52:46.620Z,-2.60
2019-01-23T01:55:15.111Z,-2.70
2019-01-23T01:57:43.594Z,-2.70
2019-01-23T02:00:15.122Z,-2.80
2019-01-23T02:02:43.578Z,-2.90
2019-01-23T02:05:12.540Z,-3.00
2019-01-23T02:07:41.022Z,-3.00
2019-01-23T02:10:16.382Z,-3.00
2019-01-23T02:12:45.073Z,-3.10
2019-01-23T02:15:15.061Z,-3.10
2019-01-23T02:17:44.004Z,-3.10
2019-01-23T02:20:15.658Z,-3.10
2019-01-23T02:22:44.163Z,-3.10
2019-01-23T02:25:13.520Z,-3.00
2019-01-23T02:27:43.012Z,-3.00
2019-01-23T02:30:14.661Z,-3.00
2019-01-23T02:32:43.095Z,-3.10
2019-01-23T02:35:11.782Z,-3.10
2019-01-23T02:37:40.204Z,-3.10
2019-01-23T02:40:15.605Z,-3.10
2019-01-23T02:42:44.097Z,-3.10
2019-01-23T02:45:12.983Z,-3.10
2019-01-23T02:47:41.399Z,-3.10
2019-01-23T02:50:11.282Z,-3.00
2019-01-23T02:52:39.743Z,-2.90
2019-01-23T02:55:13.979Z,-2.90
2019-01-23T02:57:42.387Z,-2.90
2019-01-23T03:00:13.475Z,-2.90
2019-01-23T03:02:41.980Z,-2.90
2019-01-23T03:05:16.276Z,-2.90
2019-01-23T03:07:45.266Z,-2.90
2019-01-23T03:10:17.207Z,-2.90
2019-01-23T03:12:45.653Z,-2.90
2019-01-23T03:15:16.519Z,-3.00
2019-01-23T03:17:44.944Z,-2.90
2019-01-23T03:20:15.502Z,-3.00
2019-01-23T03:22:43.910Z,-3.00
2019-01-23T03:25:13.913Z,-3.00
2019-01-23T03:27:42.332Z,-3.00
2019-01-23T03:30:16.877Z,-3.10
2019-01-23T03:32:45.343Z,-3.10
2019-01-23T03:35:14.190Z,-3.10
2019-01-23T03:37:42.801Z,-3.10
2019-01-23T03:40:14.126Z,-3.10
2019-01-23T03:42:42.660Z,-3.20
2019-01-23T03:45:13.219Z,-3.20
2019-01-23T03:47:41.635Z,-3.20
2019-01-23T03:50:13.322Z,-3.20
2019-01-23T03:52:41.830Z,-3.10
2019-01-23T03:55:12.135Z,-3.10
2019-01-23T03:57:40.542Z,-3.20
2019-01-23T04:00:12.229Z,-3.20
2019-01-23T04:02:40.838Z,-3.20
2019-01-23T04:05:10.895Z,-3.10
2019-01-23T04:07:39.351Z,-3.20
2019-01-23T04:10:10.706Z,-3.20
2019-01-23T04:12:39.126Z,-3.20
2019-01-23T04:15:10.008Z,-3.20
2019-01-23T04:17:38.427Z,-3.10
2019-01-23T04:20:10.483Z,-3.10
2019-01-23T04:22:38.929Z,-3.00
2019-01-23T04:25:09.479Z,-3.10
2019-01-23T04:27:41.838Z,-3.00
2019-01-23T04:30:18.846Z,-3.10
2019-01-23T04:32:47.285Z,-3.10
2019-01-23T04:35:15.716Z,-3.10
2019-01-23T04:37:44.202Z,-3.10
2019-01-23T04:40:14.761Z,-3.10
2019-01-23T04:42:47.467Z,-3.10
2019-01-23T04:45:17.153Z,-3.10
2019-01-23T04:47:45.710Z,-3.10
2019-01-23T04:50:16.072Z,-3.10
2019-01-23T04:52:55.281Z,-3.20
2019-01-23T04:55:23.705Z,-3.20
2019-01-23T04:57:56.479Z,-3.20
2019-01-23T05:00:26.547Z,-3.10
2019-01-23T05:02:55.067Z,-3.20
2019-01-23T05:05:23.470Z,-3.10
2019-01-23T05:07:51.928Z,-3.20
2019-01-23T05:10:20.378Z,-3.20
2019-01-23T05:12:51.978Z,-3.20
2019-01-23T05:15:20.390Z,-3.20
2019-01-23T05:17:48.835Z,-3.20
2019-01-23T05:20:17.365Z,-3.20
2019-01-23T05:22:45.851Z,-3.20
2019-01-23T05:25:14.379Z,-3.20
2019-01-23T05:27:45.732Z,-3.10
2019-01-23T05:30:22.372Z,-3.10
2019-01-23T05:32:50.803Z,-3.20
2019-01-23T05:35:19.279Z,-3.20
2019-01-23T05:37:47.743Z,-3.10
2019-01-23T05:40:16.348Z,-3.10
2019-01-23T05:42:44.762Z,-3.10
2019-01-23T05:45:14.838Z,-3.20
2019-01-23T05:47:43.399Z,-3.30
2019-01-23T05:50:17.347Z,-3.30
2019-01-23T05:52:47.921Z,-3.30
2019-01-23T05:55:16.557Z,-3.30
2019-01-23T05:57:45.118Z,-3.30
2019-01-23T06:00:16.387Z,-3.30
2019-01-23T06:02:44.815Z,-3.30
2019-01-23T06:05:14.074Z,-3.20
2019-01-23T06:07:42.532Z,-3.20
2019-01-23T06:10:11.798Z,-3.20
2019-01-23T06:12:40.645Z,-3.20
2019-01-23T06:15:14.510Z,-3.20
2019-01-23T06:17:43.035Z,-3.20
2019-01-23T06:20:20.128Z,-3.20
2019-01-23T06:22:48.743Z,-3.20
2019-01-23T06:25:17.156Z,-3.20
2019-01-23T06:27:45.601Z,-3.20
2019-01-23T06:30:19.938Z,-3.30
2019-01-23T06:32:48.632Z,-3.30
2019-01-23T06:35:17.412Z,-3.30
2019-01-23T06:37:46.122Z,-3.30
2019-01-23T06:40:16.884Z,-3.30
2019-01-23T06:42:45.324Z,-3.30
2019-01-23T06:45:16.254Z,-3.20
2019-01-23T06:47:45.435Z,-3.20
2019-01-23T06:50:16.660Z,-3.20
2019-01-23T06:52:45.551Z,-3.20
2019-01-23T06:55:14.061Z,-3.20
2019-01-23T06:57:42.795Z,-3.20
2019-01-23T07:00:27.422Z,-3.20
2019-01-23T07:02:55.834Z,-3.10
2019-01-23T07:05:24.586Z,-3.10
2019-01-23T07:07:53.115Z,-3.20
2019-01-23T07:10:23.752Z,-3.20
2019-01-23T07:12:52.503Z,-3.20
2019-01-23T07:15:26.195Z,-3.20
2019-01-23T07:17:54.603Z,-3.20
2019-01-23T07:20:24.895Z,-3.20
2019-01-23T07:22:53.326Z,-3.20
2019-01-23T07:25:22.124Z,-3.10
2019-01-23T07:27:50.569Z,-3.10
2019-01-23T07:30:38.159Z,-3.10
2019-01-23T07:33:06.607Z,-3.10
2019-01-23T07:35:35.065Z,-3.10
2019-01-23T07:38:03.469Z,-3.00
2019-01-23T07:40:31.893Z,-3.00
2019-01-23T07:43:00.395Z,-3.00
2019-01-23T07:45:29.153Z,-2.90
2019-01-23T07:47:57.582Z,-2.90
2019-01-23T07:50:26.024Z,-2.90
2019-01-23T07:52:54.902Z,-2.80
2019-01-23T07:55:23.596Z,-2.80
2019-01-23T07:57:52.047Z,-2.80
2019-01-23T08:00:23.547Z,-2.80
2019-01-23T08:02:52.246Z,-2.90
2019-01-23T08:05:23.119Z,-2.90
2019-01-23T08:07:52.086Z,-2.90
2019-01-23T08:10:21.871Z,-2.80
2019-01-23T08:12:50.315Z,-2.80
2019-01-23T08:15:21.742Z,-2.80
2019-01-23T08:17:50.203Z,-2.80
2019-01-23T08:20:23.323Z,-2.80
2019-01-23T08:22:51.752Z,-2.80
2019-01-23T08:25:20.189Z,-2.90
2019-01-23T08:27:48.644Z,-2.90
2019-01-23T08:30:19.916Z,-2.90
2019-01-23T08:32:48.343Z,-2.90
2019-01-23T08:35:17.732Z,-2.90
2019-01-23T08:37:46.403Z,-2.80
2019-01-23T08:40:16.757Z,-2.80
2019-01-23T08:42:45.719Z,-2.90
2019-01-23T08:45:15.087Z,-2.90
2019-01-23T08:47:43.904Z,-2.80
2019-01-23T08:50:30.729Z,-2.80
2019-01-23T08:52:59.217Z,-2.70
2019-01-23T08:55:27.650Z,-2.70
2019-01-23T08:57:56.094Z,-2.60
2019-01-23T09:00:24.527Z,-2.60
2019-01-23T09:02:52.967Z,-2.60
2019-01-23T09:05:21.567Z,-2.60
2019-01-23T09:07:50.007Z,-2.50
2019-01-23T09:10:21.519Z,-2.40
2019-01-23T09:12:49.972Z,-2.40
2019-01-23T09:15:18.687Z,-2.40
2019-01-23T09:17:47.115Z,-2.40
2019-01-23T09:20:17.686Z,-2.50
2019-01-23T09:22:46.490Z,-2.50
2019-01-23T09:25:17.618Z,-2.50
2019-01-23T09:27:46.109Z,-2.50
2019-01-23T09:30:25.911Z,-2.60
2019-01-23T09:33:21.760Z,-2.50
2019-01-23T09:36:11.445Z,-2.60
2019-01-23T09:38:55.163Z,-2.60
2019-01-23T09:41:44.036Z,-2.70
2019-01-23T09:44:21.324Z,-2.70
2019-01-23T09:47:10.594Z,-2.70
2019-01-23T09:49:47.874Z,-2.70
2019-01-23T09:52:34.206Z,-2.70
2019-01-23T09:55:03.007Z,-2.70
2019-01-23T09:57:31.995Z,-2.60
2019-01-23T10:00:00.434Z,-2.60
2019-01-23T10:02:28.863Z,-2.50
2019-01-23T10:04:57.332Z,-2.50
2019-01-23T10:07:25.794Z,-2.50
2019-01-23T10:09:54.211Z,-2.40
2019-01-23T10:12:22.764Z,-2.30
2019-01-23T10:14:51.203Z,-2.30
2019-01-23T10:17:22.811Z,-2.50
2019-01-23T10:19:52.668Z,-2.50
2019-01-23T10:22:21.199Z,-2.40
2019-01-23T10:24:49.623Z,-2.40
2019-01-23T10:27:18.099Z,-2.40
2019-01-23T10:29:46.562Z,-2.40
2019-01-23T10:32:15.006Z,-2.30
2019-01-23T10:34:43.475Z,-2.30
2019-01-23T10:37:11.995Z,-2.20
2019-01-23T10:39:40.423Z,-2.20
2019-01-23T10:42:09.124Z,-2.20
2019-01-23T10:44:37.554Z,-2.10
2019-01-23T10:47:06.023Z,-2.10
2019-01-23T10:49:34.467Z,-2.00
2019-01-23T10:52:02.963Z,-1.90
2019-01-23T10:54:31.426Z,-1.90
2019-01-23T10:56:59.843Z,-1.90
2019-01-23T10:59:28.255Z,-1.80
2019-01-23T11:01:56.673Z,-1.80
2019-01-23T11:04:25.107Z,-1.90
2019-01-23T11:06:53.523Z,-1.90
2019-01-23T11:09:22.068Z,-2.00
2019-01-23T11:11:50.918Z,-2.00
2019-01-23T11:14:19.355Z,-2.00
2019-01-23T11:16:47.811Z,-2.00
2019-01-23T11:19:16.234Z,-1.90
2019-01-23T11:21:44.663Z,-1.90
2019-01-23T11:24:13.094Z,-1.80
2019-01-23T11:26:41.604Z,-1.80
2019-01-23T11:29:10.048Z,-1.70
2019-01-23T11:31:38.488Z,-1.70
2019-01-23T11:34:10.948Z,-1.70
2019-01-23T11:36:39.445Z,-1.60
2019-01-23T11:39:09.027Z,-1.70
2019-01-23T11:41:37.482Z,-1.70
2019-01-23T11:44:05.987Z,-1.90
2019-01-23T11:46:34.563Z,-2.00
2019-01-23T11:49:06.466Z,-2.00
2019-01-23T11:51:34.933Z,-2.00
2019-01-23T11:54:03.426Z,-2.00
2019-01-23T11:56:31.855Z,-2.00
2019-01-23T11:59:00.277Z,-2.00
2019-01-23T12:01:28.727Z,-2.10
2019-01-23T12:03:57.173Z,-2.20
2019-01-23T12:06:25.603Z,-2.40
2019-01-23T12:08:54.059Z,-2.50
2019-01-23T12:11:22.487Z,-2.40
2019-01-23T12:13:50.973Z,-2.40
2019-01-23T12:16:19.654Z,-2.30
2019-01-23T12:18:48.103Z,-2.30
2019-01-23T12:21:16.540Z,-2.30
2019-01-23T12:23:44.951Z,-2.40
2019-01-23T12:26:13.417Z,-2.30
2019-01-23T12:28:41.867Z,-2.20
2019-01-23T12:31:10.320Z,-2.20
2019-01-23T12:33:38.752Z,-2.30
2019-01-23T12:36:07.162Z,-2.30
2019-01-23T12:38:35.601Z,-2.30
2019-01-23T12:41:04.219Z,-2.30
2019-01-23T12:43:32.713Z,-2.20
2019-01-23T12:46:01.118Z,-2.30
2019-01-23T12:48:29.563Z,-2.20
2019-01-23T12:51:00.867Z,-2.30
2019-01-23T12:53:29.494Z,-2.20
2019-01-23T12:55:57.998Z,-2.10
2019-01-23T12:58:26.447Z,-2.10
2019-01-23T13:00:54.866Z,-2.10
2019-01-23T13:03:23.381Z,-2.20
2019-01-23T13:05:55.860Z,-2.10
2019-01-23T13:08:24.267Z,-2.00
2019-01-23T13:10:52.776Z,-2.00
2019-01-23T13:13:21.203Z,-2.10
2019-01-23T13:15:49.627Z,-2.10
2019-01-23T13:18:18.098Z,-2.20
2019-01-23T13:20:49.471Z,-2.30
2019-01-23T13:23:19.739Z,-2.30
2019-01-23T13:25:48.079Z,-2.20
2019-01-23T13:28:16.555Z,-2.20
2019-01-23T13:30:44.995Z,-2.20
2019-01-23T13:33:13.410Z,-2.20
2019-01-23T13:35:45.980Z,-2.20
2019-01-23T13:38:14.450Z,-2.20
2019-01-23T13:40:42.863Z,-2.30
2019-01-23T13:43:11.307Z,-2.20
2019-01-23T13:45:39.770Z,-2.20
2019-01-23T13:48:08.926Z,-2.10
2019-01-23T13:50:37.362Z,-2.20
2019-01-23T13:53:06.027Z,-2.20
2019-01-23T13:55:34.475Z,-2.20
2019-01-23T13:58:03.559Z,-2.20
2019-01-23T14:00:40.496Z,-2.10
2019-01-23T14:03:08.941Z,-2.00
2019-01-23T14:05:37.379Z,-2.00
2019-01-23T14:08:06.935Z,-2.10
2019-01-23T14:10:35.377Z,-2.10
2019-01-23T14:13:04.198Z,-2.00
2019-01-23T14:15:37.455Z,-1.90
2019-01-23T14:18:06.731Z,-1.80
2019-01-23T14:20:35.251Z,-1.80
2019-01-23T14:23:04.191Z,-1.70
2019-01-23T14:25:32.995Z,-1.70
2019-01-23T14:28:01.463Z,-1.70
2019-01-23T14:30:32.896Z,-1.70
2019-01-23T14:33:01.321Z,-1.80
2019-01-23T14:35:30.901Z,-1.90
2019-01-23T14:38:00.723Z,-2.00
2019-01-23T14:40:29.570Z,-2.00
2019-01-23T14:42:58.103Z,-2.00
2019-01-23T14:45:27.158Z,-2.10
2019-01-23T14:47:55.627Z,-2.20
2019-01-23T14:50:25.038Z,-2.20
2019-01-23T14:52:54.136Z,-2.20
2019-01-23T14:55:22.559Z,-2.30
2019-01-23T14:57:51.014Z,-2.40
2019-01-23T15:00:25.041Z,-2.40
2019-01-23T15:02:53.480Z,-2.40
2019-01-23T15:05:21.896Z,-2.50
2019-01-23T15:07:50.471Z,-2.50
2019-01-23T15:10:21.726Z,-2.50
2019-01-23T15:12:50.421Z,-2.50
2019-01-23T15:15:19.540Z,-2.60
2019-01-23T15:17:47.963Z,-2.70
2019-01-23T15:20:21.890Z,-2.60
2019-01-23T15:22:54.682Z,-2.70
2019-01-23T15:25:23.207Z,-2.70
2019-01-23T15:27:51.646Z,-2.80
2019-01-23T15:30:23.767Z,-2.80
2019-01-23T15:32:52.430Z,-2.90
2019-01-23T15:35:21.521Z,-2.90
2019-01-23T15:37:53.000Z,-2.80
2019-01-23T15:40:29.965Z,-2.80
2019-01-23T15:42:58.387Z,-2.80
2019-01-23T15:45:26.902Z,-2.80
2019-01-23T15:47:55.342Z,-2.90
2019-01-23T15:50:27.722Z,-2.90
2019-01-23T15:52:59.410Z,-2.90
2019-01-23T15:55:27.874Z,-2.90
2019-01-23T15:57:56.364Z,-2.90
2019-01-23T16:00:30.650Z,-2.90
2019-01-23T16:02:59.385Z,-3.00
2019-01-23T16:05:27.979Z,-3.00
2019-01-23T16:07:56.754Z,-2.90
2019-01-23T16:10:27.100Z,-3.00
2019-01-23T16:12:55.683Z,-3.00
2019-01-23T16:15:26.375Z,-2.90
2019-01-23T16:17:55.355Z,-2.90
2019-01-23T16:20:24.647Z,-3.00
2019-01-23T16:22:53.876Z,-3.00
2019-01-23T16:25:22.435Z,-3.10
2019-01-23T16:27:50.922Z,-3.10
2019-01-23T16:30:28.152Z,-3.10
2019-01-23T16:32:56.629Z,-3.20
2019-01-23T16:35:25.080Z,-3.20
2019-01-23T16:37:53.874Z,-3.20
2019-01-23T16:40:22.299Z,-3.30
2019-01-23T16:42:50.714Z,-3.40
2019-01-23T16:45:20.995Z,-3.40
2019-01-23T16:47:49.570Z,-3.40
2019-01-23T16:50:23.789Z,-3.40
2019-01-23T16:52:53.837Z,-3.40
2019-01-23T16:55:22.967Z,-3.40
2019-01-23T16:57:51.743Z,-3.40
2019-01-23T17:00:23.111Z,-3.50
2019-01-23T17:02:51.531Z,-3.50
2019-01-23T17:05:28.787Z,-3.50
2019-01-23T17:07:59.943Z,-3.50
2019-01-23T17:10:29.227Z,-3.50
2019-01-23T17:12:57.785Z,-3.50
2019-01-23T17:15:26.573Z,-3.60
2019-01-23T17:17:54.995Z,-3.60
2019-01-23T17:20:26.519Z,-3.60
2019-01-23T17:22:55.005Z,-3.60
2019-01-23T17:25:23.643Z,-3.50
2019-01-23T17:27:52.066Z,-3.50
2019-01-23T17:30:20.975Z,-3.50
2019-01-23T17:32:49.743Z,-3.40
2019-01-23T17:35:20.161Z,-3.40
2019-01-23T17:37:49.213Z,-3.40
2019-01-23T17:40:23.739Z,-3.40
2019-01-23T17:42:52.678Z,-3.60
2019-01-23T17:45:24.007Z,-3.80
2019-01-23T17:47:52.414Z,-3.80
2019-01-23T17:50:23.546Z,-3.80
2019-01-23T17:52:52.545Z,-3.80
2019-01-23T17:55:23.898Z,-3.70
2019-01-23T17:57:52.883Z,-3.70
2019-01-23T18:00:26.124Z,-3.70
2019-01-23T18:02:55.009Z,-3.70
2019-01-23T18:05:23.997Z,-3.70
2019-01-23T18:07:52.485Z,-3.70
2019-01-23T18:10:23.889Z,-3.70
2019-01-23T18:12:52.621Z,-3.80
2019-01-23T18:15:35.999Z,-3.80
2019-01-23T18:18:04.968Z,-3.70
2019-01-23T18:20:33.423Z,-3.80
2019-01-23T18:23:01.841Z,-3.80
2019-01-23T18:25:34.027Z,-3.80
2019-01-23T18:28:02.452Z,-3.80
2019-01-23T18:30:40.466Z,-3.80
2019-01-23T18:33:12.143Z,-3.80
2019-01-23T18:36:00.319Z,-3.90
2019-01-23T18:38:37.815Z,-3.80
2019-01-23T18:41:32.148Z,-3.90
2019-01-23T18:44:18.400Z,-3.80
2019-01-23T18:47:04.915Z,-3.90
2019-01-23T18:49:54.463Z,-3.90
2019-01-23T18:52:22.896Z,-3.80
2019-01-23T18:54:51.339Z,-3.90
2019-01-23T18:57:30.787Z,-3.90
2019-01-23T18:59:59.531Z,-3.80
2019-01-23T19:02:28.029Z,-3.80
2019-01-23T19:04:56.475Z,-3.80
2019-01-23T19:07:24.894Z,-3.80
2019-01-23T19:09:53.343Z,-3.80
2019-01-23T19:12:26.465Z,-3.80
2019-01-23T19:14:54.943Z,-3.80
2019-01-23T19:17:23.360Z,-3.90
2019-01-23T19:19:51.791Z,-3.80
2019-01-23T19:22:20.239Z,-3.80
2019-01-23T19:24:49.026Z,-3.70
2019-01-23T19:27:17.496Z,-3.70
2019-01-23T19:29:45.923Z,-3.80
2019-01-23T19:34:42.810Z,-3.80
2019-01-23T19:37:11.366Z,-3.90
2019-01-23T19:39:39.798Z,-3.80
2019-01-23T19:42:12.439Z,-3.90
2019-01-23T19:44:41.144Z,-3.90
2019-01-23T19:47:09.559Z,-4.00
2019-01-23T19:49:38.062Z,-4.10
2019-01-23T19:52:06.699Z,-4.00
2019-01-23T19:54:35.204Z,-4.00
2019-01-23T19:57:06.911Z,-4.00
2019-01-23T19:59:35.798Z,-4.00
2019-01-23T20:02:05.084Z,-4.00
2019-01-23T20:04:33.494Z,-4.00
2019-01-23T20:07:01.950Z,-4.00
2019-01-23T20:09:30.633Z,-4.00
2019-01-23T20:11:59.065Z,-3.90
2019-01-23T20:14:27.506Z,-3.90
2019-01-23T20:16:55.918Z,-3.90
2019-01-23T20:19:24.368Z,-3.90
2019-01-23T20:21:52.799Z,-4.00
2019-01-23T20:24:21.267Z,-3.90
2019-01-23T20:26:49.704Z,-4.00
2019-01-23T20:29:18.294Z,-4.00
2019-01-23T20:31:46.746Z,-4.00
2019-01-23T20:34:15.200Z,-4.00
2019-01-23T20:36:43.602Z,-3.90
2019-01-23T20:39:12.054Z,-3.90
2019-01-23T20:41:40.490Z,-3.90
2019-01-23T20:44:08.935Z,-3.90
2019-01-23T20:46:37.403Z,-3.90
2019-01-23T20:49:05.823Z,-3.90
2019-01-23T20:51:34.411Z,-3.90
2019-01-23T20:54:02.887Z,-3.90
2019-01-23T20:56:31.398Z,-3.90
2019-01-23T20:58:59.852Z,-3.90
2019-01-23T21:01:28.338Z,-3.90
2019-01-23T21:03:56.768Z,-3.90
2019-01-23T21:06:25.723Z,-3.90
2019-01-23T21:09:00.820Z,-3.80
2019-01-23T21:11:29.294Z,-3.80
2019-01-23T21:13:57.772Z,-3.80
2019-01-23T21:16:26.224Z,-3.90
2019-01-23T21:18:54.672Z,-3.90
2019-01-23T21:21:23.095Z,-3.90
2019-01-23T21:23:52.864Z,-3.90
2019-01-23T21:26:21.358Z,-4.00
2019-01-23T21:28:49.783Z,-4.00
2019-01-23T21:31:18.197Z,-4.10
2019-01-23T21:33:46.648Z,-4.20
2019-01-23T21:36:15.083Z,-4.20
2019-01-23T21:38:43.539Z,-4.20
2019-01-23T21:41:11.951Z,-4.30
2019-01-23T21:43:40.403Z,-4.30
2019-01-23T21:46:08.908Z,-4.30
2019-01-23T21:48:37.346Z,-4.30
2019-01-23T21:51:06.046Z,-4.20
2019-01-23T21:53:34.463Z,-4.20
2019-01-23T21:56:02.900Z,-4.20
2019-01-23T21:58:31.336Z,-4.20
2019-01-23T22:00:59.759Z,-4.20
2019-01-23T22:03:28.453Z,-4.20
2019-01-23T22:05:57.145Z,-4.20
2019-01-23T22:08:25.546Z,-4.30
2019-01-23T22:10:54.038Z,-4.20
2019-01-23T22:13:22.504Z,-4.20
2019-01-23T22:15:51.028Z,-4.20
2019-01-23T22:18:19.519Z,-4.20
2019-01-23T22:20:48.106Z,-4.10
2019-01-23T22:23:16.529Z,-4.00
2019-01-23T22:25:48.238Z,-4.00
2019-01-23T22:28:16.708Z,-4.00
2019-01-23T22:30:45.120Z,-4.00
2019-01-23T22:33:13.567Z,-4.00
2019-01-23T22:35:41.978Z,-4.00
2019-01-23T22:38:10.433Z,-4.00
2019-01-23T22:40:38.886Z,-4.00
2019-01-23T22:43:07.350Z,-4.10
2019-01-23T22:45:35.746Z,-4.10
2019-01-23T22:48:04.537Z,-4.20
2019-01-23T22:50:32.991Z,-4.10
2019-01-23T22:53:01.430Z,-4.00
2019-01-23T22:55:29.850Z,-4.00
2019-01-23T22:57:58.316Z,-4.10
2019-01-23T23:00:39.674Z,-4.00
2019-01-23T23:03:10.404Z,-4.00
2019-01-23T23:05:38.859Z,-4.10
2019-01-23T23:08:07.838Z,-4.10
2019-01-23T23:10:37.222Z,-4.10
2019-01-23T23:13:05.721Z,-4.10
2019-01-23T23:15:34.231Z,-4.10
2019-01-23T23:18:02.674Z,-4.10
2019-01-23T23:20:31.095Z,-4.10
2019-01-23T23:22:59.517Z,-4.10
2019-01-23T23:25:27.957Z,-4.10
2019-01-23T23:27:56.469Z,-4.00
2019-01-23T23:30:26.486Z,-4.00
2019-01-23T23:32:55.389Z,-4.00
2019-01-23T23:35:24.147Z,-4.10
2019-01-23T23:37:52.567Z,-4.10
2019-01-23T23:40:21.007Z,-4.00
2019-01-23T23:42:53.694Z,-4.00
2019-01-23T23:45:22.119Z,-4.00
2019-01-23T23:47:50.649Z,-4.10
2019-01-23T23:50:19.488Z,-4.10
2019-01-23T23:52:48.084Z,-4.10
2019-01-23T23:55:17.226Z,-4.10
2019-01-23T23:57:49.278Z,-4.10
